createdAt,value
2022-10-11T00:00:42.650Z,1000.36
2022-10-11T00:01:42.687Z,1000.39
2022-10-11T00:02:42.604Z,1000.34
2022-10-11T00:03:42.590Z,1000.36
2022-10-11T00:04:42.562Z,1000.34
2022-10-11T00:05:42.542Z,1000.36
2022-10-11T00:06:42.519Z,1000.33
2022-10-11T00:07:42.496Z,1000.32
2022-10-11T00:08:42.478Z,1000.35
2022-10-11T00:09:42.551Z,1000.36
2022-10-11T00:10:42.439Z,1000.36
2022-10-11T00:11:42.410Z,1000.37
2022-10-11T00:12:42.399Z,1000.36
2022-10-11T00:13:42.375Z,1000.37
2022-10-11T00:14:42.364Z,1000.39
2022-10-11T00:15:42.332Z,1000.39
2022-10-11T00:16:42.304Z,1000.42
2022-10-11T00:17:42.285Z,1000.42
2022-10-11T00:18:42.267Z,1000.42
2022-10-11T00:19:42.249Z,1000.42
2022-10-11T00:20:42.225Z,1000.46
2022-10-11T00:21:42.209Z,1000.48
2022-10-11T00:22:42.180Z,1000.52
2022-10-11T00:23:42.165Z,1000.50
2022-10-11T00:24:42.145Z,1000.52
2022-10-11T00:25:42.131Z,1000.53
2022-10-11T00:26:46.408Z,1000.50
2022-10-11T00:27:42.075Z,1000.55
2022-10-11T00:28:42.107Z,1000.53
2022-10-11T00:29:42.027Z,1000.54
2022-10-11T00:30:42.015Z,1000.52
2022-10-11T00:31:41.990Z,1000.52
2022-10-11T00:32:41.971Z,1000.55
2022-10-11T00:33:41.950Z,1000.55
2022-10-11T00:34:41.925Z,1000.55
2022-10-11T00:35:41.909Z,1000.54
2022-10-11T00:36:41.882Z,1000.53
2022-10-11T00:37:41.856Z,1000.53
2022-10-11T00:38:41.838Z,1000.58
2022-10-11T00:39:41.814Z,1000.60
2022-10-11T00:40:41.798Z,1000.63
2022-10-11T00:41:41.774Z,1000.62
2022-10-11T00:42:41.752Z,1000.64
2022-10-11T00:43:41.735Z,1000.63
2022-10-11T00:44:41.718Z,1000.61
2022-10-11T00:45:41.683Z,1000.63
2022-10-11T00:46:41.690Z,1000.61
2022-10-11T00:47:41.658Z,1000.65
2022-10-11T00:48:41.625Z,1000.68
2022-10-11T00:49:41.596Z,1000.66
2022-10-11T00:50:41.587Z,1000.72
2022-10-11T00:51:41.555Z,1000.76
2022-10-11T00:52:41.541Z,1000.75
2022-10-11T00:53:41.510Z,1000.77
2022-10-11T00:54:41.492Z,1000.79
2022-10-11T00:55:41.469Z,1000.78
2022-10-11T00:56:41.458Z,1000.75
2022-10-11T00:57:41.420Z,1000.79
2022-10-11T00:58:41.408Z,1000.80
2022-10-11T00:59:41.386Z,1000.75
2022-10-11T01:00:41.356Z,1000.80
2022-10-11T01:01:41.392Z,1000.81
2022-10-11T01:02:41.311Z,1000.81
2022-10-11T01:03:41.287Z,1000.85
2022-10-11T01:04:41.280Z,1000.80
2022-10-11T01:05:41.250Z,1000.81
2022-10-11T01:06:41.219Z,1000.82
2022-10-11T01:07:41.201Z,1000.82
2022-10-11T01:08:41.178Z,1000.86
2022-10-11T01:09:41.158Z,1000.84
2022-10-11T01:10:41.138Z,1000.86
2022-10-11T01:11:41.113Z,1000.82
2022-10-11T01:12:41.096Z,1000.81
2022-10-11T01:13:41.072Z,1000.79
2022-10-11T01:14:41.053Z,1000.80
2022-10-11T01:15:41.023Z,1000.82
2022-10-11T01:16:41.011Z,1000.82
2022-10-11T01:17:40.979Z,1000.86
2022-10-11T01:18:40.958Z,1000.88
2022-10-11T01:19:40.936Z,1000.89
2022-10-11T01:20:40.913Z,1000.93
2022-10-11T01:21:40.893Z,1000.91
2022-10-11T01:22:40.873Z,1000.98
2022-10-11T01:23:40.857Z,1000.98
2022-10-11T01:24:40.824Z,1000.95
2022-10-11T01:25:40.802Z,1000.94
2022-10-11T01:26:40.777Z,1000.97
2022-10-11T01:27:40.757Z,1000.96
2022-10-11T01:28:40.814Z,1000.92
2022-10-11T01:29:40.710Z,1000.95
2022-10-11T01:30:40.701Z,1000.97
2022-10-11T01:31:40.758Z,1001.00
2022-10-11T01:32:40.640Z,1001.04
2022-10-11T01:33:40.624Z,1001.05
2022-10-11T01:34:40.600Z,1001.05
2022-10-11T01:35:40.573Z,1001.09
2022-10-11T01:36:40.555Z,1001.10
2022-10-11T01:37:40.537Z,1001.11
2022-10-11T01:38:40.514Z,1001.15
2022-10-11T01:39:40.512Z,1001.16
2022-10-11T01:40:40.463Z,1001.18
2022-10-11T01:41:40.468Z,1001.21
2022-10-11T01:42:40.441Z,1001.22
2022-10-11T01:43:40.397Z,1001.21
2022-10-11T01:44:40.373Z,1001.23
2022-10-11T01:45:40.349Z,1001.24
2022-10-11T01:46:40.334Z,1001.23
2022-10-11T01:47:40.304Z,1001.22
2022-10-11T01:48:40.294Z,1001.26
2022-10-11T01:49:40.258Z,1001.23
2022-10-11T01:50:40.241Z,1001.23
2022-10-11T01:51:43.000Z,1001.25
2022-10-11T01:52:40.191Z,1001.27
2022-10-11T01:53:40.181Z,1001.27
2022-10-11T01:55:07.489Z,1001.30
2022-10-11T01:55:40.138Z,1001.29
2022-10-11T01:56:40.106Z,1001.28
2022-10-11T01:57:40.083Z,1001.29
2022-10-11T01:58:40.061Z,1001.28
2022-10-11T01:59:40.042Z,1001.28
2022-10-11T02:00:40.017Z,1001.30
2022-10-11T02:01:40.046Z,1001.34
2022-10-11T02:02:39.987Z,1001.29
2022-10-11T02:03:39.951Z,1001.32
2022-10-11T02:04:39.925Z,1001.33
2022-10-11T02:05:39.901Z,1001.36
2022-10-11T02:06:39.898Z,1001.34
2022-10-11T02:07:39.856Z,1001.35
2022-10-11T02:08:39.868Z,1001.37
2022-10-11T02:09:39.810Z,1001.33
2022-10-11T02:10:39.791Z,1001.34
2022-10-11T02:11:39.789Z,1001.33
2022-10-11T02:12:39.745Z,1001.33
2022-10-11T02:13:39.735Z,1001.34
2022-10-11T02:14:39.704Z,1001.27
2022-10-11T02:15:39.680Z,1001.29
2022-10-11T02:16:39.655Z,1001.29
2022-10-11T02:17:39.633Z,1001.30
2022-10-11T02:18:39.611Z,1001.32
2022-10-11T02:19:39.600Z,1001.32
2022-10-11T02:20:39.567Z,1001.32
2022-10-11T02:21:39.545Z,1001.30
2022-10-11T02:22:39.521Z,1001.30
2022-10-11T02:23:39.500Z,1001.30
2022-10-11T02:24:39.481Z,1001.29
2022-10-11T02:25:39.454Z,1001.31
2022-10-11T02:26:39.440Z,1001.29
2022-10-11T02:27:39.410Z,1001.26
2022-10-11T02:28:39.500Z,1001.30
2022-10-11T02:29:39.364Z,1001.33
2022-10-11T02:30:39.341Z,1001.33
2022-10-11T02:31:39.318Z,1001.31
2022-10-11T02:32:39.299Z,1001.31
2022-10-11T02:33:39.285Z,1001.29
2022-10-11T02:34:39.254Z,1001.29
2022-10-11T02:35:39.239Z,1001.29
2022-10-11T02:36:39.206Z,1001.29
2022-10-11T02:37:39.185Z,1001.30
2022-10-11T02:38:39.180Z,1001.28
2022-10-11T02:39:39.141Z,1001.31
2022-10-11T02:40:39.116Z,1001.35
2022-10-11T02:41:39.097Z,1001.33
2022-10-11T02:42:39.072Z,1001.36
2022-10-11T02:43:39.057Z,1001.34
2022-10-11T02:44:39.024Z,1001.35
2022-10-11T02:45:39.017Z,1001.35
2022-10-11T02:46:38.980Z,1001.36
2022-10-11T02:47:38.962Z,1001.38
2022-10-11T02:48:38.937Z,1001.38
2022-10-11T02:49:38.928Z,1001.42
2022-10-11T02:50:38.915Z,1001.42
2022-10-11T02:51:38.867Z,1001.45
2022-10-11T02:52:38.861Z,1001.51
2022-10-11T02:53:38.825Z,1001.47
2022-10-11T02:54:38.800Z,1001.47
2022-10-11T02:55:38.787Z,1001.48
2022-10-11T02:56:38.759Z,1001.51
2022-10-11T02:57:38.736Z,1001.54
2022-10-11T02:58:38.718Z,1001.53
2022-10-11T02:59:38.693Z,1001.53
2022-10-11T03:00:38.665Z,1001.50
2022-10-11T03:01:38.718Z,1001.49
2022-10-11T03:02:38.621Z,1001.52
2022-10-11T03:03:38.596Z,1001.47
2022-10-11T03:04:38.578Z,1001.48
2022-10-11T03:05:38.556Z,1001.51
2022-10-11T03:06:38.539Z,1001.52
2022-10-11T03:07:38.507Z,1001.52
2022-10-11T03:08:38.483Z,1001.55
2022-10-11T03:09:38.458Z,1001.55
2022-10-11T03:10:38.440Z,1001.57
2022-10-11T03:11:38.416Z,1001.52
2022-10-11T03:12:38.400Z,1001.55
2022-10-11T03:13:38.367Z,1001.53
2022-10-11T03:14:38.347Z,1001.56
2022-10-11T03:15:38.329Z,1001.57
2022-10-11T03:16:38.301Z,1001.60
2022-10-11T03:17:38.275Z,1001.60
2022-10-11T03:18:38.258Z,1001.61
2022-10-11T03:19:38.231Z,1001.59
2022-10-11T03:20:38.216Z,1001.62
2022-10-11T03:21:38.191Z,1001.61
2022-10-11T03:22:38.168Z,1001.59
2022-10-11T03:23:38.139Z,1001.61
2022-10-11T03:24:38.115Z,1001.58
2022-10-11T03:25:38.095Z,1001.62
2022-10-11T03:26:38.077Z,1001.64
2022-10-11T03:27:38.052Z,1001.62
2022-10-11T03:28:38.056Z,1001.62
2022-10-11T03:29:38.009Z,1001.61
2022-10-11T03:30:37.981Z,1001.64
2022-10-11T03:31:37.954Z,1001.69
2022-10-11T03:32:37.934Z,1001.66
2022-10-11T03:33:37.911Z,1001.65
2022-10-11T03:34:37.884Z,1001.63
2022-10-11T03:35:37.865Z,1001.65
2022-10-11T03:36:37.838Z,1001.61
2022-10-11T03:37:37.818Z,1001.64
2022-10-11T03:38:37.799Z,1001.65
2022-10-11T03:39:37.774Z,1001.65
2022-10-11T03:40:37.748Z,1001.71
2022-10-11T03:41:37.726Z,1001.70
2022-10-11T03:42:37.712Z,1001.70
2022-10-11T03:43:37.682Z,1001.72
2022-10-11T03:44:37.659Z,1001.77
2022-10-11T03:45:37.646Z,1001.83
2022-10-11T03:46:37.612Z,1001.89
2022-10-11T03:47:37.587Z,1001.87
2022-10-11T03:48:37.567Z,1001.88
2022-10-11T03:49:41.305Z,1001.84
2022-10-11T03:50:37.522Z,1001.84
2022-10-11T03:51:37.496Z,1001.82
2022-10-11T03:52:37.485Z,1001.80
2022-10-11T03:53:37.443Z,1001.82
2022-10-11T03:54:37.423Z,1001.89
2022-10-11T03:55:37.409Z,1001.87
2022-10-11T03:56:37.391Z,1001.91
2022-10-11T03:57:37.365Z,1001.90
2022-10-11T03:58:37.329Z,1001.93
2022-10-11T03:59:37.312Z,1001.91
2022-10-11T04:00:37.294Z,1001.94
2022-10-11T04:01:37.310Z,1001.90
2022-10-11T04:02:39.311Z,1001.92
2022-10-11T04:03:37.212Z,1001.93
2022-10-11T04:04:37.202Z,1001.92
2022-10-11T04:05:37.171Z,1001.98
2022-10-11T04:06:37.147Z,1001.93
2022-10-11T04:07:37.122Z,1001.97
2022-10-11T04:08:37.099Z,1002.01
2022-10-11T04:09:37.077Z,1002.01
2022-10-11T04:10:37.056Z,1002.02
2022-10-11T04:11:37.024Z,1002.05
2022-10-11T04:12:37.002Z,1002.06
2022-10-11T04:13:36.981Z,1002.02
2022-10-11T04:14:36.962Z,1002.02
2022-10-11T04:15:36.934Z,1002.02
2022-10-11T04:16:36.915Z,1002.06
2022-10-11T04:17:36.889Z,1002.05
2022-10-11T04:18:36.864Z,1002.04
2022-10-11T04:19:36.839Z,1002.05
2022-10-11T04:20:36.816Z,1002.04
2022-10-11T04:21:36.792Z,1002.01
2022-10-11T04:22:36.769Z,1002.00
2022-10-11T04:23:36.743Z,1002.08
2022-10-11T04:24:36.722Z,1002.08
2022-10-11T04:25:36.696Z,1002.03
2022-10-11T04:26:36.674Z,1002.06
2022-10-11T04:27:36.652Z,1002.06
2022-10-11T04:28:36.680Z,1002.01
2022-10-11T04:29:36.602Z,1002.04
2022-10-11T04:30:36.578Z,1002.03
2022-10-11T04:31:36.556Z,1002.02
2022-10-11T04:32:36.531Z,1002.05
2022-10-11T04:33:36.514Z,1002.04
2022-10-11T04:34:36.494Z,1002.07
2022-10-11T04:35:36.461Z,1002.04
2022-10-11T04:36:36.459Z,1002.07
2022-10-11T04:37:36.418Z,1002.04
2022-10-11T04:38:36.394Z,1002.05
2022-10-11T04:39:36.376Z,1002.07
2022-10-11T04:40:36.341Z,1002.07
2022-10-11T04:41:36.314Z,1002.05
2022-10-11T04:42:36.293Z,1002.10
2022-10-11T04:43:36.276Z,1002.11
2022-10-11T04:44:36.310Z,1002.10
2022-10-11T04:45:36.227Z,1002.12
2022-10-11T04:46:36.196Z,1002.12
2022-10-11T04:47:36.181Z,1002.15
2022-10-11T04:48:36.156Z,1002.17
2022-10-11T04:49:36.127Z,1002.18
2022-10-11T04:50:36.101Z,1002.20
2022-10-11T04:51:36.080Z,1002.20
2022-10-11T04:52:36.056Z,1002.25
2022-10-11T04:53:36.029Z,1002.24
2022-10-11T04:54:36.014Z,1002.25
2022-10-11T04:55:35.985Z,1002.29
2022-10-11T04:56:35.970Z,1002.35
2022-10-11T04:57:35.948Z,1002.35
2022-10-11T04:58:35.919Z,1002.35
2022-10-11T04:59:35.884Z,1002.37
2022-10-11T05:00:35.866Z,1002.39
2022-10-11T05:01:35.900Z,1002.40
2022-10-11T05:02:35.819Z,1002.40
2022-10-11T05:03:35.794Z,1002.43
2022-10-11T05:04:35.769Z,1002.45
2022-10-11T05:05:35.744Z,1002.46
2022-10-11T05:06:35.717Z,1002.43
2022-10-11T05:07:35.704Z,1002.45
2022-10-11T05:08:35.670Z,1002.43
2022-10-11T05:09:35.647Z,1002.46
2022-10-11T05:10:35.624Z,1002.48
2022-10-11T05:11:35.602Z,1002.49
2022-10-11T05:12:35.580Z,1002.48
2022-10-11T05:13:35.562Z,1002.50
2022-10-11T05:14:35.527Z,1002.52
2022-10-11T05:15:35.501Z,1002.50
2022-10-11T05:16:35.477Z,1002.50
2022-10-11T05:17:35.451Z,1002.51
2022-10-11T05:18:35.432Z,1002.49
2022-10-11T05:19:35.408Z,1002.49
2022-10-11T05:20:35.378Z,1002.50
2022-10-11T05:21:35.369Z,1002.51
2022-10-11T05:22:35.336Z,1002.52
2022-10-11T05:23:35.320Z,1002.61
2022-10-11T05:24:35.285Z,1002.61
2022-10-11T05:25:35.259Z,1002.62
2022-10-11T05:26:35.239Z,1002.66
2022-10-11T05:27:35.213Z,1002.65
2022-10-11T05:28:35.256Z,1002.63
2022-10-11T05:29:35.163Z,1002.63
2022-10-11T05:30:35.143Z,1002.67
2022-10-11T05:31:35.116Z,1002.65
2022-10-11T05:32:35.092Z,1002.68
2022-10-11T05:33:35.090Z,1002.69
2022-10-11T05:34:35.045Z,1002.73
2022-10-11T05:35:35.020Z,1002.72
2022-10-11T05:36:34.992Z,1002.78
2022-10-11T05:37:34.970Z,1002.75
2022-10-11T05:38:34.943Z,1002.78
2022-10-11T05:39:34.950Z,1002.81
2022-10-11T05:40:34.902Z,1002.80
2022-10-11T05:41:34.872Z,1002.79
2022-10-11T05:42:34.854Z,1002.82
2022-10-11T05:43:34.824Z,1002.85
2022-10-11T05:44:34.802Z,1002.84
2022-10-11T05:45:34.786Z,1002.88
2022-10-11T05:46:34.753Z,1002.90
2022-10-11T05:47:34.727Z,1002.90
2022-10-11T05:48:34.702Z,1002.90
2022-10-11T05:49:34.681Z,1002.92
2022-10-11T05:50:34.659Z,1002.96
2022-10-11T05:51:34.636Z,1002.98
2022-10-11T05:52:34.610Z,1002.97
2022-10-11T05:53:34.583Z,1003.03
2022-10-11T05:54:34.558Z,1003.02
2022-10-11T05:55:34.537Z,1003.03
2022-10-11T05:56:34.512Z,1003.05
2022-10-11T05:57:34.485Z,1003.04
2022-10-11T05:58:34.464Z,1003.06
2022-10-11T05:59:34.449Z,1003.08
2022-10-11T06:00:34.414Z,1003.10
2022-10-11T06:01:34.456Z,1003.12
2022-10-11T06:02:34.371Z,1003.15
2022-10-11T06:03:34.351Z,1003.15
2022-10-11T06:04:34.318Z,1003.15
2022-10-11T06:05:34.302Z,1003.13
2022-10-11T06:06:34.276Z,1003.16
2022-10-11T06:07:34.258Z,1003.11
2022-10-11T06:08:34.221Z,1003.16
2022-10-11T06:09:34.198Z,1003.21
2022-10-11T06:10:34.195Z,1003.21
2022-10-11T06:11:34.147Z,1003.20
2022-10-11T06:12:34.134Z,1003.25
2022-10-11T06:13:34.148Z,1003.22
2022-10-11T06:14:34.120Z,1003.24
2022-10-11T06:15:34.054Z,1003.24
2022-10-11T06:16:34.030Z,1003.27
2022-10-11T06:17:34.011Z,1003.25
2022-10-11T06:18:33.981Z,1003.31
2022-10-11T06:19:33.956Z,1003.34
2022-10-11T06:20:33.936Z,1003.34
2022-10-11T06:21:33.912Z,1003.34
2022-10-11T06:22:33.885Z,1003.30
2022-10-11T06:23:33.863Z,1003.31
2022-10-11T06:24:33.855Z,1003.32
2022-10-11T06:25:33.821Z,1003.31
2022-10-11T06:26:33.815Z,1003.38
2022-10-11T06:27:33.768Z,1003.38
2022-10-11T06:28:33.793Z,1003.40
2022-10-11T06:29:33.731Z,1003.44
2022-10-11T06:30:33.714Z,1003.41
2022-10-11T06:31:33.673Z,1003.40
2022-10-11T06:32:33.648Z,1003.43
2022-10-11T06:33:33.634Z,1003.44
2022-10-11T06:34:33.599Z,1003.46
2022-10-11T06:35:33.581Z,1003.48
2022-10-11T06:36:33.554Z,1003.48
2022-10-11T06:37:33.530Z,1003.51
2022-10-11T06:38:33.522Z,1003.54
2022-10-11T06:39:33.497Z,1003.52
2022-10-11T06:40:33.460Z,1003.50
2022-10-11T06:41:33.457Z,1003.52
2022-10-11T06:42:33.409Z,1003.53
2022-10-11T06:43:33.403Z,1003.51
2022-10-11T06:44:33.365Z,1003.54
2022-10-11T06:45:33.340Z,1003.56
2022-10-11T06:46:33.329Z,1003.56
2022-10-11T06:47:33.291Z,1003.59
2022-10-11T06:48:33.271Z,1003.57
2022-10-11T06:49:33.243Z,1003.59
2022-10-11T06:50:58.046Z,1003.64
2022-10-11T06:51:33.204Z,1003.66
2022-10-11T06:52:33.178Z,1003.67
2022-10-11T06:53:33.154Z,1003.70
2022-10-11T06:54:33.129Z,1003.72
2022-10-11T06:55:33.108Z,1003.71
2022-10-11T06:56:33.081Z,1003.72
2022-10-11T06:57:33.059Z,1003.74
2022-10-11T06:58:33.039Z,1003.73
2022-10-11T06:59:33.013Z,1003.78
2022-10-11T07:00:32.991Z,1003.74
2022-10-11T07:01:33.026Z,1003.75
2022-10-11T07:02:32.942Z,1003.77
2022-10-11T07:03:32.925Z,1003.80
2022-10-11T07:04:32.894Z,1003.79
2022-10-11T07:05:32.888Z,1003.80
2022-10-11T07:06:32.847Z,1003.80
2022-10-11T07:07:32.828Z,1003.83
2022-10-11T07:08:32.803Z,1003.82
2022-10-11T07:09:32.781Z,1003.85
2022-10-11T07:10:32.755Z,1003.84
2022-10-11T07:11:32.735Z,1003.86
2022-10-11T07:12:32.709Z,1003.86
2022-10-11T07:13:32.698Z,1003.88
2022-10-11T07:14:32.665Z,1003.90
2022-10-11T07:15:32.662Z,1003.89
2022-10-11T07:16:32.619Z,1003.88
2022-10-11T07:17:32.593Z,1003.87
2022-10-11T07:18:32.573Z,1003.87
2022-10-11T07:19:32.548Z,1003.95
2022-10-11T07:20:32.541Z,1003.95
2022-10-11T07:21:32.512Z,1003.92
2022-10-11T07:22:32.480Z,1003.94
2022-10-11T07:23:32.459Z,1003.94
2022-10-11T07:24:33.168Z,1003.93
2022-10-11T07:25:32.412Z,1003.97
2022-10-11T07:26:37.684Z,1003.97
2022-10-11T07:27:32.369Z,1004.00
2022-10-11T07:28:32.403Z,1003.96
2022-10-11T07:29:32.317Z,1004.00
2022-10-11T07:30:32.300Z,1003.94
2022-10-11T07:31:32.274Z,1003.96
2022-10-11T07:32:32.254Z,1003.96
2022-10-11T07:33:32.226Z,1003.96
2022-10-11T07:34:32.203Z,1003.94
2022-10-11T07:35:32.180Z,1003.94
2022-10-11T07:36:32.158Z,1003.97
2022-10-11T07:37:32.133Z,1003.95
2022-10-11T07:38:32.112Z,1003.98
2022-10-11T07:39:32.086Z,1004.02
2022-10-11T07:40:32.062Z,1004.00
2022-10-11T07:41:32.047Z,1004.02
2022-10-11T07:42:32.019Z,1004.05
2022-10-11T07:43:32.016Z,1004.03
2022-10-11T07:44:31.969Z,1004.03
2022-10-11T07:45:31.961Z,1004.06
2022-10-11T07:46:31.926Z,1004.09
2022-10-11T07:47:31.900Z,1004.08
2022-10-11T07:48:31.877Z,1004.11
2022-10-11T07:49:31.853Z,1004.10
2022-10-11T07:50:31.827Z,1004.10
2022-10-11T07:51:31.845Z,1004.09
2022-10-11T07:52:31.791Z,1004.06
2022-10-11T07:53:31.764Z,1004.09
2022-10-11T07:54:31.734Z,1004.04
2022-10-11T07:55:31.724Z,1004.03
2022-10-11T07:56:31.690Z,1004.02
2022-10-11T07:57:31.669Z,1004.05
2022-10-11T07:58:31.645Z,1004.04
2022-10-11T07:59:31.621Z,1004.04
2022-10-11T08:00:31.598Z,1004.10
2022-10-11T08:01:31.684Z,1004.07
2022-10-11T08:02:31.556Z,1004.10
2022-10-11T08:03:31.559Z,1004.08
2022-10-11T08:04:31.520Z,1004.09
2022-10-11T08:05:31.490Z,1004.10
2022-10-11T08:06:31.463Z,1004.13
2022-10-11T08:07:31.435Z,1004.11
2022-10-11T08:08:31.426Z,1004.14
2022-10-11T08:09:31.402Z,1004.13
2022-10-11T08:10:31.381Z,1004.12
2022-10-11T08:11:31.348Z,1004.16
2022-10-11T08:12:31.318Z,1004.15
2022-10-11T08:13:31.297Z,1004.20
2022-10-11T08:14:31.276Z,1004.21
2022-10-11T08:15:31.250Z,1004.17
2022-10-11T08:16:31.232Z,1004.18
2022-10-11T08:17:31.216Z,1004.19
2022-10-11T08:18:31.183Z,1004.21
2022-10-11T08:19:31.161Z,1004.21
2022-10-11T08:20:31.222Z,1004.25
2022-10-11T08:21:31.129Z,1004.31
2022-10-11T08:22:31.092Z,1004.29
2022-10-11T08:23:31.068Z,1004.31
2022-10-11T08:24:35.885Z,1004.34
2022-10-11T08:25:31.020Z,1004.34
2022-10-11T08:26:31.007Z,1004.34
2022-10-11T08:27:30.979Z,1004.36
2022-10-11T08:28:30.964Z,1004.41
2022-10-11T08:29:30.929Z,1004.36
2022-10-11T08:30:30.915Z,1004.43
2022-10-11T08:31:30.886Z,1004.40
2022-10-11T08:32:30.866Z,1004.38
2022-10-11T08:33:30.840Z,1004.39
2022-10-11T08:34:30.813Z,1004.38
2022-10-11T08:35:30.797Z,1004.41
2022-10-11T08:36:30.770Z,1004.41
2022-10-11T08:37:30.750Z,1004.42
2022-10-11T08:38:30.724Z,1004.41
2022-10-11T08:39:30.704Z,1004.43
2022-10-11T08:40:35.159Z,1004.46
2022-10-11T08:41:30.665Z,1004.43
2022-10-11T08:42:30.659Z,1004.43
2022-10-11T08:43:30.623Z,1004.45
2022-10-11T08:44:46.159Z,1004.45
2022-10-11T08:45:30.577Z,1004.47
2022-10-11T08:46:30.552Z,1004.46
2022-10-11T08:47:30.535Z,1004.45
2022-10-11T08:48:30.507Z,1004.46
2022-10-11T08:49:30.486Z,1004.42
2022-10-11T08:50:30.468Z,1004.45
2022-10-11T08:51:30.440Z,1004.46
2022-10-11T08:52:30.417Z,1004.44
2022-10-11T08:53:30.399Z,1004.47
2022-10-11T08:54:30.376Z,1004.44
2022-10-11T08:55:30.355Z,1004.44
2022-10-11T08:56:30.335Z,1004.47
2022-10-11T08:57:30.317Z,1004.49
2022-10-11T08:58:30.299Z,1004.50
2022-10-11T08:59:30.277Z,1004.50
2022-10-11T09:00:30.265Z,1004.49
2022-10-11T09:01:30.264Z,1004.52
2022-10-11T09:02:43.916Z,1004.48
2022-10-11T09:03:30.192Z,1004.44
2022-10-11T09:04:30.166Z,1004.49
2022-10-11T09:05:30.149Z,1004.48
2022-10-11T09:06:30.127Z,1004.50
2022-10-11T09:07:30.101Z,1004.48
2022-10-11T09:08:30.093Z,1004.55
2022-10-11T09:09:30.060Z,1004.48
2022-10-11T09:10:30.039Z,1004.46
2022-10-11T09:11:30.028Z,1004.49
2022-10-11T09:12:33.489Z,1004.48
2022-10-11T09:13:29.980Z,1004.48
2022-10-11T09:14:29.956Z,1004.43
2022-10-11T09:15:29.937Z,1004.45
2022-10-11T09:16:29.918Z,1004.44
2022-10-11T09:17:29.901Z,1004.44
2022-10-11T09:18:29.881Z,1004.44
2022-10-11T09:19:29.877Z,1004.46
2022-10-11T09:20:29.832Z,1004.49
2022-10-11T09:21:29.819Z,1004.49
2022-10-11T09:22:30.871Z,1004.47
2022-10-11T09:23:29.773Z,1004.48
2022-10-11T09:24:29.752Z,1004.48
2022-10-11T09:25:29.736Z,1004.46
2022-10-11T09:26:29.719Z,1004.49
2022-10-11T09:27:57.354Z,1004.45
2022-10-11T09:28:29.742Z,1004.46
2022-10-11T09:29:29.658Z,1004.49
2022-10-11T09:30:29.655Z,1004.47
2022-10-11T09:31:29.659Z,1004.45
2022-10-11T09:32:29.609Z,1004.40
2022-10-11T09:33:29.583Z,1004.42
2022-10-11T09:34:29.558Z,1004.40
2022-10-11T09:35:29.550Z,1004.41
2022-10-11T09:36:29.523Z,1004.45
2022-10-11T09:37:29.506Z,1004.42
2022-10-11T09:38:29.482Z,1004.42
2022-10-11T09:39:29.466Z,1004.45
2022-10-11T09:40:29.447Z,1004.43
2022-10-11T09:41:29.430Z,1004.40
2022-10-11T09:42:29.406Z,1004.44
2022-10-11T09:43:29.393Z,1004.40
2022-10-11T09:44:29.444Z,1004.42
2022-10-11T09:45:29.364Z,1004.38
2022-10-11T09:46:29.332Z,1004.37
2022-10-11T09:47:29.313Z,1004.42
2022-10-11T09:48:29.295Z,1004.46
2022-10-11T09:49:29.279Z,1004.47
2022-10-11T09:50:29.258Z,1004.44
2022-10-11T09:51:29.250Z,1004.49
2022-10-11T09:52:29.219Z,1004.47
2022-10-11T09:53:29.199Z,1004.45
2022-10-11T09:54:29.184Z,1004.46
2022-10-11T09:55:29.159Z,1004.44
2022-10-11T09:56:29.145Z,1004.43
2022-10-11T09:57:29.126Z,1004.47
2022-10-11T09:58:29.103Z,1004.47
2022-10-11T09:59:29.101Z,1004.48
2022-10-11T10:00:29.081Z,1004.48
2022-10-11T10:01:29.133Z,1004.52
2022-10-11T10:02:29.024Z,1004.58
2022-10-11T10:03:29.009Z,1004.50
2022-10-11T10:04:28.988Z,1004.53
2022-10-11T10:05:28.972Z,1004.49
2022-10-11T10:06:28.961Z,1004.52
2022-10-11T10:07:28.932Z,1004.50
2022-10-11T10:08:28.917Z,1004.51
2022-10-11T10:09:28.892Z,1004.52
2022-10-11T10:10:28.882Z,1004.54
2022-10-11T10:11:28.858Z,1004.49
2022-10-11T10:12:28.837Z,1004.51
2022-10-11T10:13:28.820Z,1004.53
2022-10-11T10:14:28.801Z,1004.53
2022-10-11T10:15:28.781Z,1004.55
2022-10-11T10:16:28.852Z,1004.53
2022-10-11T10:17:28.746Z,1004.58
2022-10-11T10:18:28.727Z,1004.59
2022-10-11T10:19:28.713Z,1004.56
2022-10-11T10:20:28.697Z,1004.58
2022-10-11T10:21:28.672Z,1004.57
2022-10-11T10:22:28.652Z,1004.56
2022-10-11T10:23:28.638Z,1004.58
2022-10-11T10:24:28.617Z,1004.61
2022-10-11T10:25:28.600Z,1004.62
2022-10-11T10:26:28.583Z,1004.60
2022-10-11T10:27:28.571Z,1004.57
2022-10-11T10:28:28.622Z,1004.56
2022-10-11T10:29:28.532Z,1004.54
2022-10-11T10:30:33.072Z,1004.56
2022-10-11T10:31:28.496Z,1004.55
2022-10-11T10:32:28.479Z,1004.57
2022-10-11T10:33:28.456Z,1004.52
2022-10-11T10:34:28.445Z,1004.52
2022-10-11T10:35:28.431Z,1004.51
2022-10-11T10:36:28.406Z,1004.51
2022-10-11T10:37:28.392Z,1004.50
2022-10-11T10:38:28.370Z,1004.52
2022-10-11T10:39:28.358Z,1004.51
2022-10-11T10:40:28.339Z,1004.51
2022-10-11T10:41:28.325Z,1004.45
2022-10-11T10:42:28.305Z,1004.42
2022-10-11T10:43:28.290Z,1004.48
2022-10-11T10:44:28.272Z,1004.40
2022-10-11T10:45:28.251Z,1004.41
2022-10-11T10:46:28.241Z,1004.43
2022-10-11T10:47:28.222Z,1004.45
2022-10-11T10:48:28.200Z,1004.48
2022-10-11T10:49:52.559Z,1004.44
2022-10-11T10:50:28.171Z,1004.46
2022-10-11T10:51:28.151Z,1004.46
2022-10-11T10:52:28.129Z,1004.50
2022-10-11T10:53:28.118Z,1004.48
2022-10-11T10:54:28.097Z,1004.44
2022-10-11T10:55:28.081Z,1004.43
2022-10-11T10:56:28.067Z,1004.45
2022-10-11T10:57:28.057Z,1004.44
2022-10-11T10:58:28.035Z,1004.46
2022-10-11T10:59:28.018Z,1004.41
2022-10-11T11:00:28.002Z,1004.42
2022-10-11T11:01:28.063Z,1004.42
2022-10-11T11:02:40.455Z,1004.44
2022-10-11T11:03:27.959Z,1004.44
2022-10-11T11:04:27.950Z,1004.42
2022-10-11T11:05:27.924Z,1004.39
2022-10-11T11:06:28.992Z,1004.39
2022-10-11T11:07:27.938Z,1004.39
2022-10-11T11:08:27.876Z,1004.38
2022-10-11T11:09:27.867Z,1004.37
2022-10-11T11:10:27.854Z,1004.32
2022-10-11T11:11:27.831Z,1004.31
2022-10-11T11:12:27.823Z,1004.33
2022-10-11T11:13:27.807Z,1004.28
2022-10-11T11:14:27.795Z,1004.30
2022-10-11T11:15:32.481Z,1004.34
2022-10-11T11:16:27.757Z,1004.31
2022-10-11T11:17:27.748Z,1004.34
2022-10-11T11:18:27.749Z,1004.33
2022-10-11T11:19:27.719Z,1004.31
2022-10-11T11:20:27.709Z,1004.29
2022-10-11T11:21:27.724Z,1004.28
2022-10-11T11:22:32.481Z,1004.30
2022-10-11T11:23:27.665Z,1004.32
2022-10-11T11:24:27.656Z,1004.31
2022-10-11T11:25:27.639Z,1004.31
2022-10-11T11:26:27.626Z,1004.30
2022-10-11T11:27:27.616Z,1004.29
2022-10-11T11:28:27.659Z,1004.28
2022-10-11T11:29:27.592Z,1004.20
2022-10-11T11:30:27.586Z,1004.20
2022-10-11T11:31:27.573Z,1004.22
2022-10-11T11:32:27.556Z,1004.22
2022-10-11T11:33:27.544Z,1004.22
2022-10-11T11:34:27.549Z,1004.24
2022-10-11T11:35:27.517Z,1004.26
2022-10-11T11:36:27.526Z,1004.27
2022-10-11T11:37:27.490Z,1004.29
2022-10-11T11:38:29.765Z,1004.21
2022-10-11T11:39:27.468Z,1004.22
2022-10-11T11:40:27.457Z,1004.22
2022-10-11T11:41:27.462Z,1004.21
2022-10-11T11:42:27.438Z,1004.24
2022-10-11T11:43:27.422Z,1004.18
2022-10-11T11:44:27.801Z,1004.19
2022-10-11T11:45:27.395Z,1004.18
2022-10-11T11:46:27.384Z,1004.17
2022-10-11T11:47:27.372Z,1004.14
2022-10-11T11:48:27.356Z,1004.17
2022-10-11T11:49:27.348Z,1004.16
2022-10-11T11:50:28.688Z,1004.17
2022-10-11T11:51:30.484Z,1004.14
2022-10-11T11:52:27.315Z,1004.13
2022-10-11T11:53:27.308Z,1004.16
2022-10-11T11:54:27.290Z,1004.14
2022-10-11T11:55:27.296Z,1004.19
2022-10-11T11:56:27.267Z,1004.15
2022-10-11T11:57:27.254Z,1004.14
2022-10-11T11:58:27.242Z,1004.16
2022-10-11T11:59:27.233Z,1004.15
2022-10-11T12:00:27.218Z,1004.15
2022-10-11T12:01:31.102Z,1004.16
2022-10-11T12:02:27.320Z,1004.13
2022-10-11T12:03:27.189Z,1004.12
2022-10-11T12:04:27.174Z,1004.12
2022-10-11T12:05:27.174Z,1004.07